sensor_id;sensor_type;location;lat;lon;timestamp;pressure;altitude;pressure_sealevel;temperature;humidity
70546;BME280;58098;51.680;5.134;2022-12-07T00:00:28;101979.56;;;3.03;100.00
70546;BME280;58098;51.680;5.134;2022-12-07T00:02:53;101969.44;;;2.97;100.00
70546;BME280;58098;51.680;5.134;2022-12-07T00:05:18;101970.63;;;2.86;100.00
70546;BME280;58098;51.680;5.134;2022-12-07T00:07:44;101980.81;;;2.90;100.00
70546;BME280;58098;51.680;5.134;2022-12-07T00:10:09;101974.06;;;2.86;100.00
70546;BME280;58098;51.680;5.134;2022-12-07T00:12:34;101958.03;;;2.75;100.00
70546;BME280;58098;51.680;5.134;2022-12-07T00:15:00;101963.91;;;2.80;100.00
70546;BME280;58098;51.680;5.134;2022-12-07T00:17:25;101970.00;;;2.78;100.00
70546;BME280;58098;51.680;5.134;2022-12-07T00:19:50;101963.31;;;2.72;100.00
70546;BME280;58098;51.680;5.134;2022-12-07T00:22:16;101962.41;;;2.73;100.00
70546;BME280;58098;51.680;5.134;2022-12-07T00:24:41;101965.88;;;2.72;100.00
70546;BME280;58098;51.680;5.134;2022-12-07T00:27:06;101954.59;;;2.76;100.00
70546;BME280;58098;51.680;5.134;2022-12-07T00:29:32;101963.97;;;2.79;100.00
70546;BME280;58098;51.680;5.134;2022-12-07T00:31:57;101957.22;;;2.75;100.00
70546;BME280;58098;51.680;5.134;2022-12-07T00:34:22;101958.03;;;2.75;100.00
70546;BME280;58098;51.680;5.134;2022-12-07T00:36:48;101959.66;;;2.79;100.00
70546;BME280;58098;51.680;5.134;2022-12-07T00:39:14;101951.22;;;2.74;100.00
70546;BME280;58098;51.680;5.134;2022-12-07T00:41:39;101956.19;;;2.80;100.00
70546;BME280;58098;51.680;5.134;2022-12-07T00:44:05;101944.38;;;2.73;100.00
70546;BME280;58098;51.680;5.134;2022-12-07T00:46:30;101951.81;;;2.84;100.00
70546;BME280;58098;51.680;5.134;2022-12-07T00:48:56;101955.94;;;2.89;100.00
70546;BME280;58098;51.680;5.134;2022-12-07T00:51:22;101955.81;;;2.92;100.00
70546;BME280;58098;51.680;5.134;2022-12-07T00:53:49;101953.16;;;2.95;100.00
70546;BME280;58098;51.680;5.134;2022-12-07T00:56:17;101947.88;;;3.00;100.00
70546;BME280;58098;51.680;5.134;2022-12-07T00:58:43;101914.78;;;2.86;100.00
70546;BME280;58098;51.680;5.134;2022-12-07T01:01:10;101945.06;;;3.07;100.00
70546;BME280;58098;51.680;5.134;2022-12-07T01:03:36;101944.91;;;3.13;100.00
70546;BME280;58098;51.680;5.134;2022-12-07T01:06:03;101954.03;;;3.23;100.00
70546;BME280;58098;51.680;5.134;2022-12-07T01:08:29;101935.22;;;3.20;100.00
70546;BME280;58098;51.680;5.134;2022-12-07T01:11:05;101943.66;;;3.25;100.00
70546;BME280;58098;51.680;5.134;2022-12-07T01:13:33;101962.22;;;3.36;100.00
70546;BME280;58098;51.680;5.134;2022-12-07T01:16:00;101946.09;;;3.29;100.00
70546;BME280;58098;51.680;5.134;2022-12-07T01:18:33;101957.72;;;3.43;100.00
70546;BME280;58098;51.680;5.134;2022-12-07T01:21:02;101954.25;;;3.44;100.00
70546;BME280;58098;51.680;5.134;2022-12-07T01:23:29;101954.25;;;3.44;100.00
70546;BME280;58098;51.680;5.134;2022-12-07T01:25:58;101947.50;;;3.40;100.00
70546;BME280;58098;51.680;5.134;2022-12-07T01:28:24;101954.38;;;3.41;100.00
70546;BME280;58098;51.680;5.134;2022-12-07T01:33:22;101952.03;;;3.33;100.00
70546;BME280;58098;51.680;5.134;2022-12-07T01:35:47;101939.44;;;3.22;100.00
70546;BME280;58098;51.680;5.134;2022-12-07T01:38:13;101948.91;;;3.22;100.00
70546;BME280;58098;51.680;5.134;2022-12-07T01:40:38;101939.75;;;3.12;100.00
70546;BME280;58098;51.680;5.134;2022-12-07T01:43:14;101947.31;;;3.18;100.00
70546;BME280;58098;51.680;5.134;2022-12-07T01:45:41;101943.28;;;3.09;100.00
70546;BME280;58098;51.680;5.134;2022-12-07T01:48:10;101947.06;;;2.99;100.00
70546;BME280;58098;51.680;5.134;2022-12-07T01:50:37;101950.41;;;3.01;100.00
70546;BME280;58098;51.680;5.134;2022-12-07T01:53:06;101949.84;;;2.92;100.00
70546;BME280;58098;51.680;5.134;2022-12-07T01:55:37;101950.06;;;2.84;100.00
70546;BME280;58098;51.680;5.134;2022-12-07T01:58:03;101942.66;;;2.74;100.00
70546;BME280;58098;51.680;5.134;2022-12-07T02:00:29;101939.97;;;2.77;100.00
70546;BME280;58098;51.680;5.134;2022-12-07T02:03:19;101950.94;;;2.85;100.00
70546;BME280;58098;51.680;5.134;2022-12-07T02:05:47;101947.50;;;2.84;100.00
70546;BME280;58098;51.680;5.134;2022-12-07T02:08:14;101930.47;;;2.79;100.00
70546;BME280;58098;51.680;5.134;2022-12-07T02:10:39;101935.41;;;2.86;100.00
70546;BME280;58098;51.680;5.134;2022-12-07T02:13:09;101942.84;;;2.95;100.00
70546;BME280;58098;51.680;5.134;2022-12-07T02:18:18;101941.69;;;3.05;100.00
70546;BME280;58098;51.680;5.134;2022-12-07T02:21:20;101928.81;;;3.05;100.00
70546;BME280;58098;51.680;5.134;2022-12-07T02:26:56;101936.25;;;3.14;100.00
70546;BME280;58098;51.680;5.134;2022-12-07T02:34:55;101945.53;;;3.20;100.00
70546;BME280;58098;51.680;5.134;2022-12-07T02:37:37;101940.66;;;3.11;100.00
70546;BME280;58098;51.680;5.134;2022-12-07T02:40:11;101933.09;;;3.05;100.00
70546;BME280;58098;51.680;5.134;2022-12-07T02:42:49;101896.22;;;2.75;100.00
70546;BME280;58098;51.680;5.134;2022-12-07T02:45:19;101916.28;;;2.93;100.00
70546;BME280;58098;51.680;5.134;2022-12-07T02:47:49;101913.00;;;2.88;100.00
70546;BME280;58098;51.680;5.134;2022-12-07T02:50:18;101929.97;;;2.95;100.00
70546;BME280;58098;51.680;5.134;2022-12-07T02:52:44;101921.72;;;2.84;100.00
70546;BME280;58098;51.680;5.134;2022-12-07T02:55:09;101926.88;;;2.84;100.00
70546;BME280;58098;51.680;5.134;2022-12-07T03:00:18;101923.16;;;2.94;100.00
70546;BME280;58098;51.680;5.134;2022-12-07T03:08:19;101924.66;;;3.01;100.00
70546;BME280;58098;51.680;5.134;2022-12-07T03:13:45;101949.28;;;3.10;100.00
70546;BME280;58098;51.680;5.134;2022-12-07T03:16:21;101950.97;;;3.11;100.00
70546;BME280;58098;51.680;5.134;2022-12-07T03:19:08;101932.38;;;3.01;100.00
70546;BME280;58098;51.680;5.134;2022-12-07T03:21:47;101921.28;;;2.99;100.00
70546;BME280;58098;51.680;5.134;2022-12-07T03:24:18;101938.81;;;3.14;100.00
70546;BME280;58098;51.680;5.134;2022-12-07T03:26:47;101926.88;;;3.12;100.00
70546;BME280;58098;51.680;5.134;2022-12-07T03:29:21;101924.28;;;3.13;100.00
70546;BME280;58098;51.680;5.134;2022-12-07T03:31:57;101917.38;;;3.14;100.00
70546;BME280;58098;51.680;5.134;2022-12-07T03:34:38;101932.50;;;3.24;100.00
70546;BME280;58098;51.680;5.134;2022-12-07T03:37:14;101928.97;;;3.28;100.00
70546;BME280;58098;51.680;5.134;2022-12-07T03:39:53;101908.56;;;3.21;100.00
70546;BME280;58098;51.680;5.134;2022-12-07T03:42:22;101908.41;;;3.25;100.00
70546;BME280;58098;51.680;5.134;2022-12-07T03:44:49;101912.56;;;3.29;100.00
70546;BME280;58098;51.680;5.134;2022-12-07T03:47:29;101920.91;;;3.38;100.00
70546;BME280;58098;51.680;5.134;2022-12-07T03:50:31;101926.88;;;3.40;100.00
70546;BME280;58098;51.680;5.134;2022-12-07T03:53:05;101914.84;;;3.39;100.00
70546;BME280;58098;51.680;5.134;2022-12-07T03:55:35;101918.25;;;3.41;100.00
70546;BME280;58098;51.680;5.134;2022-12-07T03:58:08;101919.13;;;3.40;100.00
70546;BME280;58098;51.680;5.134;2022-12-07T04:00:35;101916.56;;;3.40;100.00
70546;BME280;58098;51.680;5.134;2022-12-07T04:03:00;101918.19;;;3.42;100.00
70546;BME280;58098;51.680;5.134;2022-12-07T04:05:26;101929.28;;;3.44;100.00
70546;BME280;58098;51.680;5.134;2022-12-07T04:07:51;101919.91;;;3.42;100.00
70546;BME280;58098;51.680;5.134;2022-12-07T04:10:17;101918.19;;;3.42;100.00
70546;BME280;58098;51.680;5.134;2022-12-07T04:12:43;101926.72;;;3.44;100.00
70546;BME280;58098;51.680;5.134;2022-12-07T04:15:08;101907.34;;;3.31;100.00
70546;BME280;58098;51.680;5.134;2022-12-07T04:17:34;101922.41;;;3.45;100.00
70546;BME280;58098;51.680;5.134;2022-12-07T04:19:59;101932.56;;;3.49;100.00
70546;BME280;58098;51.680;5.134;2022-12-07T04:22:24;101920.63;;;3.47;100.00
70546;BME280;58098;51.680;5.134;2022-12-07T04:24:50;101921.72;;;3.40;100.00
70546;BME280;58098;51.680;5.134;2022-12-07T04:27:15;101930.22;;;3.43;100.00
70546;BME280;58098;51.680;5.134;2022-12-07T04:29:40;101916.00;;;3.30;100.00
70546;BME280;58098;51.680;5.134;2022-12-07T04:32:05;101914.31;;;3.29;100.00
70546;BME280;58098;51.680;5.134;2022-12-07T04:34:31;101920.38;;;3.28;100.00
70546;BME280;58098;51.680;5.134;2022-12-07T04:36:56;101909.53;;;3.17;100.00
70546;BME280;58098;51.680;5.134;2022-12-07T04:39:30;101913.75;;;3.19;100.00
70546;BME280;58098;51.680;5.134;2022-12-07T04:41:56;101907.66;;;3.22;100.00
70546;BME280;58098;51.680;5.134;2022-12-07T04:44:23;101895.94;;;3.12;100.00
70546;BME280;58098;51.680;5.134;2022-12-07T04:46:49;101907.72;;;3.20;100.00
70546;BME280;58098;51.680;5.134;2022-12-07T04:49:15;101893.41;;;3.10;100.00
70546;BME280;58098;51.680;5.134;2022-12-07T04:51:41;101902.03;;;3.09;100.00
70546;BME280;58098;51.680;5.134;2022-12-07T04:54:07;101905.44;;;3.11;100.00
70546;BME280;58098;51.680;5.134;2022-12-07T04:56:33;101897.03;;;3.05;100.00
70546;BME280;58098;51.680;5.134;2022-12-07T04:59:00;101905.50;;;3.08;100.00
70546;BME280;58098;51.680;5.134;2022-12-07T05:01:26;101886.13;;;2.97;100.00
70546;BME280;58098;51.680;5.134;2022-12-07T05:03:51;101879.19;;;2.99;100.00
70546;BME280;58098;51.680;5.134;2022-12-07T05:06:17;101895.34;;;3.04;100.00
70546;BME280;58098;51.680;5.134;2022-12-07T05:08:42;101886.91;;;2.99;100.00
70546;BME280;58098;51.680;5.134;2022-12-07T05:11:09;101891.84;;;3.06;100.00
70546;BME280;58098;51.680;5.134;2022-12-07T05:13:35;101877.63;;;2.93;100.00
70546;BME280;58098;51.680;5.134;2022-12-07T05:16:01;101881.13;;;2.91;100.00
70546;BME280;58098;51.680;5.134;2022-12-07T05:18:27;101875.28;;;2.86;100.00
70546;BME280;58098;51.680;5.134;2022-12-07T05:20:52;101872.94;;;2.78;100.00
70546;BME280;58098;51.680;5.134;2022-12-07T05:23:18;101884.94;;;2.79;100.00
70546;BME280;58098;51.680;5.134;2022-12-07T05:25:44;101879.38;;;2.65;100.00
70546;BME280;58098;51.680;5.134;2022-12-07T05:28:10;101881.13;;;2.63;100.00
70546;BME280;58098;51.680;5.134;2022-12-07T05:30:35;101877.97;;;2.53;100.00
70546;BME280;58098;51.680;5.134;2022-12-07T05:33:01;101897.50;;;2.60;100.00
70546;BME280;58098;51.680;5.134;2022-12-07T05:35:28;101891.59;;;2.57;100.00
70546;BME280;58098;51.680;5.134;2022-12-07T05:37:53;101895.97;;;2.55;100.00
70546;BME280;58098;51.680;5.134;2022-12-07T05:40:18;101894.31;;;2.52;100.00
70546;BME280;58098;51.680;5.134;2022-12-07T05:42:44;101875.03;;;2.36;100.00
70546;BME280;58098;51.680;5.134;2022-12-07T05:45:10;101888.47;;;2.46;100.00
70546;BME280;58098;51.680;5.134;2022-12-07T05:47:37;101893.81;;;2.40;100.00
70546;BME280;58098;51.680;5.134;2022-12-07T05:50:05;101885.22;;;2.41;100.00
70546;BME280;58098;51.680;5.134;2022-12-07T05:52:30;101885.88;;;2.47;100.00
70546;BME280;58098;51.680;5.134;2022-12-07T05:54:56;101894.34;;;2.51;100.00
70546;BME280;58098;51.680;5.134;2022-12-07T05:57:21;101892.59;;;2.53;100.00
70546;BME280;58098;51.680;5.134;2022-12-07T05:59:46;101879.81;;;2.50;100.00
70546;BME280;58098;51.680;5.134;2022-12-07T06:02:14;101867.56;;;2.56;100.00
70546;BME280;58098;51.680;5.134;2022-12-07T06:04:42;101857.41;;;2.52;100.00
70546;BME280;58098;51.680;5.134;2022-12-07T06:07:08;101871.72;;;2.62;100.00
70546;BME280;58098;51.680;5.134;2022-12-07T06:09:34;101870.06;;;2.59;100.00
70546;BME280;58098;51.680;5.134;2022-12-07T06:12:00;101881.03;;;2.66;100.00
70546;BME280;58098;51.680;5.134;2022-12-07T06:14:44;101879.44;;;2.62;100.00
70546;BME280;58098;51.680;5.134;2022-12-07T06:17:10;101871.28;;;2.48;100.00
70546;BME280;58098;51.680;5.134;2022-12-07T06:19:35;101883.16;;;2.52;100.00
70546;BME280;58098;51.680;5.134;2022-12-07T06:22:01;101885.03;;;2.47;100.00
70546;BME280;58098;51.680;5.134;2022-12-07T06:24:26;101881.75;;;2.42;100.00
70546;BME280;58098;51.680;5.134;2022-12-07T06:26:52;101883.69;;;2.34;100.00
70546;BME280;58098;51.680;5.134;2022-12-07T06:29:18;101878.00;;;2.23;100.00
70546;BME280;58098;51.680;5.134;2022-12-07T06:31:44;101893.41;;;2.24;100.00
70546;BME280;58098;51.680;5.134;2022-12-07T06:34:12;101879.13;;;2.13;100.00
70546;BME280;58098;51.680;5.134;2022-12-07T06:36:38;101889.34;;;2.16;100.00
70546;BME280;58098;51.680;5.134;2022-12-07T06:39:04;101881.84;;;2.08;100.00
70546;BME280;58098;51.680;5.134;2022-12-07T06:41:30;101892.00;;;2.14;100.00
70546;BME280;58098;51.680;5.134;2022-12-07T06:43:55;101895.34;;;2.16;100.00
70546;BME280;58098;51.680;5.134;2022-12-07T06:46:21;101898.06;;;2.12;100.00
70546;BME280;58098;51.680;5.134;2022-12-07T06:48:46;101888.03;;;2.01;100.00
70546;BME280;58098;51.680;5.134;2022-12-07T06:51:11;101904.94;;;2.10;100.00
70546;BME280;58098;51.680;5.134;2022-12-07T06:53:37;101902.50;;;2.05;100.00
70546;BME280;58098;51.680;5.134;2022-12-07T06:56:04;101904.22;;;2.06;100.00
70546;BME280;58098;51.680;5.134;2022-12-07T06:58:30;101896.50;;;2.05;100.00
70546;BME280;58098;51.680;5.134;2022-12-07T07:00:55;101904.88;;;2.13;100.00
70546;BME280;58098;51.680;5.134;2022-12-07T07:03:20;101890.34;;;2.10;100.00
70546;BME280;58098;51.680;5.134;2022-12-07T07:05:46;101888.56;;;2.14;100.00
70546;BME280;58098;51.680;5.134;2022-12-07T07:08:11;101896.16;;;2.18;100.00
70546;BME280;58098;51.680;5.134;2022-12-07T07:10:37;101893.72;;;2.12;100.00
70546;BME280;58098;51.680;5.134;2022-12-07T07:13:03;101892.13;;;2.08;100.00
70546;BME280;58098;51.680;5.134;2022-12-07T07:15:28;101915.84;;;2.19;100.00
70546;BME280;58098;51.680;5.134;2022-12-07T07:17:54;101901.44;;;2.14;100.00
70546;BME280;58098;51.680;5.134;2022-12-07T07:20:19;101906.25;;;2.26;100.00
70546;BME280;58098;51.680;5.134;2022-12-07T07:22:44;101895.31;;;2.18;100.00
70546;BME280;58098;51.680;5.134;2022-12-07T07:25:10;101909.78;;;2.22;100.00
70546;BME280;58098;51.680;5.134;2022-12-07T07:27:35;101887.78;;;2.12;100.00
70546;BME280;58098;51.680;5.134;2022-12-07T07:30:01;101901.50;;;2.11;100.00
70546;BME280;58098;51.680;5.134;2022-12-07T07:32:26;101900.78;;;2.06;100.00
70546;BME280;58098;51.680;5.134;2022-12-07T07:34:51;101903.34;;;2.06;100.00
70546;BME280;58098;51.680;5.134;2022-12-07T07:37:17;101891.63;;;1.95;100.00
70546;BME280;58098;51.680;5.134;2022-12-07T07:39:42;101889.94;;;1.94;100.00
70546;BME280;58098;51.680;5.134;2022-12-07T07:42:07;101895.16;;;1.91;100.00
70546;BME280;58098;51.680;5.134;2022-12-07T07:44:35;101908.75;;;1.96;100.00
70546;BME280;58098;51.680;5.134;2022-12-07T07:47:01;101895.25;;;1.88;100.00
70546;BME280;58098;51.680;5.134;2022-12-07T07:49:26;101898.63;;;1.90;100.00
70546;BME280;58098;51.680;5.134;2022-12-07T07:51:54;101912.06;;;2.02;100.00
70546;BME280;58098;51.680;5.134;2022-12-07T07:54:20;101911.03;;;2.07;100.00
70546;BME280;58098;51.680;5.134;2022-12-07T07:56:45;101915.09;;;2.16;100.00
70546;BME280;58098;51.680;5.134;2022-12-07T07:59:10;101916.47;;;2.29;100.00
70546;BME280;58098;51.680;5.134;2022-12-07T08:01:35;101906.84;;;2.34;100.00
70546;BME280;58098;51.680;5.134;2022-12-07T08:04:01;101905.09;;;2.36;100.00
70546;BME280;58098;51.680;5.134;2022-12-07T08:06:26;101905.78;;;2.42;100.00
70546;BME280;58098;51.680;5.134;2022-12-07T08:08:52;101921.75;;;2.53;100.00
70546;BME280;58098;51.680;5.134;2022-12-07T08:11:17;101926.56;;;2.65;100.00
70546;BME280;58098;51.680;5.134;2022-12-07T08:13:45;101935.00;;;2.71;100.00
70546;BME280;58098;51.680;5.134;2022-12-07T08:16:11;101922.97;;;2.71;100.00
70546;BME280;58098;51.680;5.134;2022-12-07T08:18:38;101906.78;;;2.66;100.00
70546;BME280;58098;51.680;5.134;2022-12-07T08:21:04;101929.47;;;2.84;100.00
70546;BME280;58098;51.680;5.134;2022-12-07T08:23:31;101912.38;;;2.80;100.00
70546;BME280;58098;51.680;5.134;2022-12-07T08:26:01;101926.75;;;2.89;100.00
70546;BME280;58098;51.680;5.134;2022-12-07T08:28:28;101907.22;;;2.80;100.00
70546;BME280;58098;51.680;5.134;2022-12-07T08:31:05;101917.22;;;2.91;100.00
70546;BME280;58098;51.680;5.134;2022-12-07T08:33:31;101901.28;;;2.78;100.00
70546;BME280;58098;51.680;5.134;2022-12-07T08:36:09;101919.03;;;2.87;100.00
70546;BME280;58098;51.680;5.134;2022-12-07T08:38:37;101919.41;;;2.75;100.00
70546;BME280;58098;51.680;5.134;2022-12-07T08:41:02;101920.31;;;2.74;100.00
70546;BME280;58098;51.680;5.134;2022-12-07T08:43:28;101933.97;;;2.76;100.00
70546;BME280;58098;51.680;5.134;2022-12-07T08:46:09;101931.53;;;2.72;100.00
70546;BME280;58098;51.680;5.134;2022-12-07T08:48:41;101905.47;;;2.53;100.00
70546;BME280;58098;51.680;5.134;2022-12-07T08:51:08;101933.63;;;2.59;100.00
70546;BME280;58098;51.680;5.134;2022-12-07T08:53:34;101925.22;;;2.52;100.00
70546;BME280;58098;51.680;5.134;2022-12-07T08:56:00;101904.97;;;2.40;100.00
70546;BME280;58098;51.680;5.134;2022-12-07T08:58:26;101927.09;;;2.47;100.00
70546;BME280;58098;51.680;5.134;2022-12-07T09:00:52;101922.81;;;2.46;100.00
70546;BME280;58098;51.680;5.134;2022-12-07T09:03:17;101932.25;;;2.47;100.00
70546;BME280;58098;51.680;5.134;2022-12-07T09:05:42;101905.09;;;2.36;100.00
70546;BME280;58098;51.680;5.134;2022-12-07T09:08:08;101919.38;;;2.47;100.00
70546;BME280;58098;51.680;5.134;2022-12-07T09:10:33;101902.25;;;2.45;100.00
70546;BME280;58098;51.680;5.134;2022-12-07T09:12:59;101911.28;;;2.59;100.00
70546;BME280;58098;51.680;5.134;2022-12-07T09:15:27;101915.38;;;2.66;100.00
70546;BME280;58098;51.680;5.134;2022-12-07T09:17:52;101904.13;;;2.69;100.00
70546;BME280;58098;51.680;5.134;2022-12-07T09:20:18;101892.09;;;2.70;100.00
70546;BME280;58098;51.680;5.134;2022-12-07T09:22:43;101901.34;;;2.77;100.00
70546;BME280;58098;51.680;5.134;2022-12-07T09:25:08;101914.69;;;2.89;100.00
70546;BME280;58098;51.680;5.134;2022-12-07T09:27:34;101897.59;;;2.87;100.00
70546;BME280;58098;51.680;5.134;2022-12-07T09:29:59;101911.00;;;2.98;100.00
70546;BME280;58098;51.680;5.134;2022-12-07T09:32:24;101920.03;;;3.11;100.00
70546;BME280;58098;51.680;5.134;2022-12-07T09:34:50;101918.06;;;3.19;100.00
70546;BME280;58098;51.680;5.134;2022-12-07T09:37:15;101906.78;;;3.23;100.00
70546;BME280;58098;51.680;5.134;2022-12-07T09:39:41;101919.19;;;3.38;100.00
70546;BME280;58098;51.680;5.134;2022-12-07T09:42:07;101928.34;;;3.47;100.00
70546;BME280;58098;51.680;5.134;2022-12-07T09:44:33;101919.75;;;3.48;100.00
70546;BME280;58098;51.680;5.134;2022-12-07T09:47:00;101920.28;;;3.57;100.00
70546;BME280;58098;51.680;5.134;2022-12-07T09:49:28;101905.06;;;3.48;100.00
70546;BME280;58098;51.680;5.134;2022-12-07T09:54:35;101889.13;;;3.37;100.00
70546;BME280;58098;51.680;5.134;2022-12-07T09:57:01;101916.06;;;3.55;100.00
70546;BME280;58098;51.680;5.134;2022-12-07T09:59:27;101914.38;;;3.54;100.00
70546;BME280;58098;51.680;5.134;2022-12-07T10:01:52;101917.84;;;3.53;100.00
70546;BME280;58098;51.680;5.134;2022-12-07T10:04:23;101918.50;;;3.59;100.00
70546;BME280;58098;51.680;5.134;2022-12-07T10:06:50;101917.44;;;3.65;100.00
70546;BME280;58098;51.680;5.134;2022-12-07T10:09:18;101912.16;;;3.68;100.00
70546;BME280;58098;51.680;5.134;2022-12-07T10:12:04;101915.41;;;3.74;100.00
70546;BME280;58098;51.680;5.134;2022-12-07T10:14:32;101874.78;;;3.55;100.00
70546;BME280;58098;51.680;5.134;2022-12-07T10:16:59;101906.66;;;3.78;100.00
70546;BME280;58098;51.680;5.134;2022-12-07T10:19:27;101894.59;;;3.79;100.00
70546;BME280;58098;51.680;5.134;2022-12-07T10:22:10;101888.31;;;3.86;100.00
70546;BME280;58098;51.680;5.134;2022-12-07T10:24:37;101895.84;;;3.92;100.00
70546;BME280;58098;51.680;5.134;2022-12-07T10:27:04;101890.38;;;4.01;100.00
70546;BME280;58098;51.680;5.134;2022-12-07T10:34:39;101883.91;;;4.37;100.00
70546;BME280;58098;51.680;5.134;2022-12-07T10:39:56;101875.25;;;4.61;100.00
70546;BME280;58098;51.680;5.134;2022-12-07T10:42:31;101886.63;;;4.79;100.00
70546;BME280;58098;51.680;5.134;2022-12-07T10:47:38;101882.47;;;4.97;100.00
70546;BME280;58098;51.680;5.134;2022-12-07T10:52:45;101875.19;;;5.06;100.00
70546;BME280;58098;51.680;5.134;2022-12-07T11:00:17;101880.72;;;5.19;100.00
70546;BME280;58098;51.680;5.134;2022-12-07T11:02:59;101862.38;;;5.25;100.00
70546;BME280;58098;51.680;5.134;2022-12-07T11:08:09;101814.34;;;4.98;100.00
70546;BME280;58098;51.680;5.134;2022-12-07T11:10:57;101846.41;;;5.15;100.00
70546;BME280;58098;51.680;5.134;2022-12-07T11:21:42;101827.56;;;5.12;100.00
70546;BME280;58098;51.680;5.134;2022-12-07T11:24:15;101835.09;;;5.18;100.00
70546;BME280;58098;51.680;5.134;2022-12-07T11:29:44;101823.59;;;5.25;100.00
70546;BME280;58098;51.680;5.134;2022-12-07T11:32:34;101814.00;;;5.27;100.00
70546;BME280;58098;51.680;5.134;2022-12-07T11:35:10;101822.88;;;5.42;100.00
70546;BME280;58098;51.680;5.134;2022-12-07T11:37:37;101814.16;;;5.44;100.00
70546;BME280;58098;51.680;5.134;2022-12-07T11:40:14;101820.34;;;5.60;100.00
70546;BME280;58098;51.680;5.134;2022-12-07T11:45:26;101798.22;;;5.53;100.00
70546;BME280;58098;51.680;5.134;2022-12-07T11:48:12;101800.69;;;5.56;100.00
70546;BME280;58098;51.680;5.134;2022-12-07T11:50:47;101819.56;;;5.58;100.00
70546;BME280;58098;51.680;5.134;2022-12-07T11:55:54;101814.47;;;5.57;100.00
70546;BME280;58098;51.680;5.134;2022-12-07T12:03:44;101809.66;;;5.48;100.00
70546;BME280;58098;51.680;5.134;2022-12-07T12:06:10;101793.56;;;5.41;100.00
70546;BME280;58098;51.680;5.134;2022-12-07T12:08:40;101786.78;;;5.39;100.00
70546;BME280;58098;51.680;5.134;2022-12-07T12:20:18;101774.16;;;5.51;100.00
70546;BME280;58098;51.680;5.134;2022-12-07T12:25:30;101774.66;;;5.59;100.00
70546;BME280;58098;51.680;5.134;2022-12-07T12:27:58;101774.47;;;5.64;100.00
70546;BME280;58098;51.680;5.134;2022-12-07T12:30:38;101758.53;;;5.53;100.00
70546;BME280;58098;51.680;5.134;2022-12-07T12:33:31;101779.97;;;5.56;100.00
70546;BME280;58098;51.680;5.134;2022-12-07T12:44:38;101757.47;;;5.38;100.00
70546;BME280;58098;51.680;5.134;2022-12-07T12:49:37;101758.94;;;5.64;100.00
70546;BME280;58098;51.680;5.134;2022-12-07T12:55:02;101758.44;;;5.94;100.00
70546;BME280;58098;51.680;5.134;2022-12-07T12:57:36;101749.34;;;6.05;100.00
70546;BME280;58098;51.680;5.134;2022-12-07T13:00:21;101739.28;;;6.17;100.00
70546;BME280;58098;51.680;5.134;2022-12-07T13:02:52;101732.00;;;6.25;100.00
70546;BME280;58098;51.680;5.134;2022-12-07T13:05:20;101741.97;;;6.33;100.00
70546;BME280;58098;51.680;5.134;2022-12-07T13:15:36;101702.91;;;6.37;100.00
70546;BME280;58098;51.680;5.134;2022-12-07T13:28:40;101729.53;;;6.22;100.00
70546;BME280;58098;51.680;5.134;2022-12-07T13:33:37;101728.13;;;5.58;100.00
70546;BME280;58098;51.680;5.134;2022-12-07T13:36:02;101741.13;;;5.38;100.00
70546;BME280;58098;51.680;5.134;2022-12-07T13:38:31;101734.06;;;5.01;100.00
70546;BME280;58098;51.680;5.134;2022-12-07T13:41:11;101737.81;;;4.94;100.00
70546;BME280;58098;51.680;5.134;2022-12-07T13:43:51;101727.91;;;4.83;100.00
70546;BME280;58098;51.680;5.134;2022-12-07T13:46:20;101726.97;;;4.64;100.00
70546;BME280;58098;51.680;5.134;2022-12-07T13:48:50;101732.78;;;4.69;100.00
70546;BME280;58098;51.680;5.134;2022-12-07T13:51:23;101726.00;;;4.66;100.00
70546;BME280;58098;51.680;5.134;2022-12-07T13:53:59;101717.50;;;4.63;100.00
70546;BME280;58098;51.680;5.134;2022-12-07T13:56:32;101716.50;;;4.67;100.00
70546;BME280;58098;51.680;5.134;2022-12-07T13:59:00;101714.09;;;4.62;100.00
70546;BME280;58098;51.680;5.134;2022-12-07T14:01:30;101723.22;;;4.71;100.00
70546;BME280;58098;51.680;5.134;2022-12-07T14:07:00;101711.50;;;4.84;100.00
70546;BME280;58098;51.680;5.134;2022-12-07T14:09:28;101694.72;;;4.73;100.00
70546;BME280;58098;51.680;5.134;2022-12-07T14:11:55;101693.28;;;4.65;100.00
70546;BME280;58098;51.680;5.134;2022-12-07T14:14:25;101702.94;;;4.62;100.00
70546;BME280;58098;51.680;5.134;2022-12-07T14:17:09;101688.91;;;4.46;100.00
70546;BME280;58098;51.680;5.134;2022-12-07T14:19:45;101686.81;;;4.34;100.00
70546;BME280;58098;51.680;5.134;2022-12-07T14:22:33;101697.91;;;4.37;100.00
70546;BME280;58098;51.680;5.134;2022-12-07T14:27:31;101683.41;;;4.33;100.00
70546;BME280;58098;51.680;5.134;2022-12-07T14:29:58;101669.03;;;4.26;100.00
70546;BME280;58098;51.680;5.134;2022-12-07T14:32:27;101671.59;;;4.28;100.00
70546;BME280;58098;51.680;5.134;2022-12-07T14:35:10;101673.88;;;4.35;100.00
70546;BME280;58098;51.680;5.134;2022-12-07T14:37:36;101679.44;;;4.46;100.00
70546;BME280;58098;51.680;5.134;2022-12-07T14:40:02;101673.19;;;4.52;100.00
70546;BME280;58098;51.680;5.134;2022-12-07T14:42:28;101672.41;;;4.50;100.00
70546;BME280;58098;51.680;5.134;2022-12-07T14:44:56;101674.81;;;4.54;100.00
70546;BME280;58098;51.680;5.134;2022-12-07T14:47:22;101677.97;;;4.61;100.00
70546;BME280;58098;51.680;5.134;2022-12-07T14:49:48;101676.34;;;4.58;100.00
70546;BME280;58098;51.680;5.134;2022-12-07T14:52:16;101664.66;;;4.50;100.00
70546;BME280;58098;51.680;5.134;2022-12-07T14:54:42;101666.50;;;4.46;100.00
70546;BME280;58098;51.680;5.134;2022-12-07T14:57:09;101661.41;;;4.45;100.00
70546;BME280;58098;51.680;5.134;2022-12-07T14:59:35;101655.72;;;4.37;100.00